createdAt,value
2023-03-22T00:02:07.661Z,1.00
2023-03-22T00:04:34.281Z,1.08
2023-03-22T00:07:00.886Z,0.80
2023-03-22T00:09:27.398Z,0.80
2023-03-22T00:11:54.041Z,1.20
2023-03-22T00:14:20.943Z,0.75
2023-03-22T00:16:49.161Z,1.20
2023-03-22T00:19:17.424Z,1.08
2023-03-22T00:21:44.293Z,1.00
2023-03-22T00:24:10.993Z,1.02
2023-03-22T00:26:37.762Z,1.75
2023-03-22T00:29:05.124Z,1.13
2023-03-22T00:31:31.769Z,1.08
2023-03-22T00:33:58.421Z,1.30
2023-03-22T00:36:24.927Z,1.13
2023-03-22T00:38:51.954Z,1.20
2023-03-22T00:41:21.229Z,1.10
2023-03-22T00:43:49.006Z,0.82
2023-03-22T00:46:17.880Z,1.20
2023-03-22T00:48:44.885Z,1.15
2023-03-22T00:51:12.035Z,0.93
2023-03-22T00:53:42.305Z,0.90
2023-03-22T00:56:10.720Z,1.00
2023-03-22T00:58:37.220Z,1.03
2023-03-22T01:01:03.825Z,1.17
2023-03-22T01:03:30.404Z,1.05
2023-03-22T01:05:56.942Z,1.17
2023-03-22T01:08:24.441Z,1.10
2023-03-22T01:10:51.548Z,1.03
2023-03-22T01:13:18.230Z,1.40
2023-03-22T01:15:45.222Z,1.10
2023-03-22T01:18:11.714Z,1.35
2023-03-22T01:20:38.644Z,1.27
2023-03-22T01:23:05.418Z,1.10
2023-03-22T01:25:32.165Z,1.00
2023-03-22T01:27:58.918Z,1.17
2023-03-22T01:30:25.455Z,1.42
2023-03-22T01:32:52.084Z,0.90
2023-03-22T01:35:18.639Z,1.07
2023-03-22T01:37:45.292Z,1.05
2023-03-22T01:40:14.466Z,0.80
2023-03-22T01:42:41.031Z,1.05
2023-03-22T01:45:13.658Z,1.20
2023-03-22T01:47:42.482Z,0.80
2023-03-22T01:50:09.936Z,1.38
2023-03-22T01:52:37.660Z,1.30
2023-03-22T01:55:06.747Z,1.15
2023-03-22T01:57:37.472Z,1.20
2023-03-22T02:00:15.569Z,0.80
2023-03-22T02:02:48.216Z,0.95
2023-03-22T02:05:15.389Z,1.00
2023-03-22T02:07:43.254Z,1.48
2023-03-22T02:10:18.844Z,1.17
2023-03-22T02:12:54.040Z,0.80
2023-03-22T02:15:32.484Z,1.15
2023-03-22T02:18:07.896Z,1.38
2023-03-22T02:20:46.521Z,1.00
2023-03-22T02:23:22.055Z,1.00
2023-03-22T02:26:08.559Z,1.00
2023-03-22T02:28:47.873Z,0.95
2023-03-22T02:31:30.367Z,1.48
2023-03-22T02:34:30.955Z,1.35
2023-03-22T02:37:24.712Z,1.40
2023-03-22T02:40:10.674Z,1.97
2023-03-22T02:43:15.830Z,1.83
2023-03-22T02:46:19.294Z,1.85
2023-03-22T02:49:19.548Z,1.88
2023-03-22T02:51:55.930Z,2.90
2023-03-22T02:54:33.217Z,2.20
2023-03-22T02:57:13.835Z,2.25
2023-03-22T02:59:42.269Z,3.20
2023-03-22T03:02:13.548Z,3.90
2023-03-22T03:04:45.639Z,3.22
2023-03-22T03:07:15.490Z,3.50
2023-03-22T03:09:42.939Z,3.75
2023-03-22T03:12:14.867Z,3.92
2023-03-22T03:14:42.147Z,3.92
2023-03-22T03:17:30.388Z,4.43
2023-03-22T03:20:24.124Z,4.27
2023-03-22T03:23:08.417Z,4.28
2023-03-22T03:25:46.223Z,4.93
2023-03-22T03:28:30.166Z,4.63
2023-03-22T03:31:07.997Z,5.15
2023-03-22T03:33:37.956Z,5.37
2023-03-22T03:36:11.655Z,5.28
2023-03-22T03:38:42.905Z,4.80
2023-03-22T03:41:14.433Z,5.07
2023-03-22T03:43:42.642Z,5.50
2023-03-22T03:46:09.664Z,5.03
2023-03-22T03:48:38.413Z,6.25
2023-03-22T03:51:05.061Z,5.50
2023-03-22T03:53:32.034Z,5.30
2023-03-22T03:55:58.515Z,5.53
2023-03-22T03:58:25.157Z,5.70
2023-03-22T04:00:51.774Z,5.30
2023-03-22T04:03:18.420Z,5.38
2023-03-22T04:05:46.006Z,5.20
2023-03-22T04:08:12.569Z,6.22
2023-03-22T04:10:39.606Z,5.10
2023-03-22T04:13:06.693Z,5.82
2023-03-22T04:15:33.375Z,6.00
2023-03-22T04:18:00.000Z,5.40
2023-03-22T04:20:27.027Z,5.57
2023-03-22T04:22:53.696Z,5.57
2023-03-22T04:25:22.702Z,5.68
2023-03-22T04:27:51.331Z,5.13
2023-03-22T04:30:21.941Z,5.43
2023-03-22T04:32:49.791Z,4.78
2023-03-22T04:35:16.598Z,5.53
2023-03-22T04:37:43.292Z,5.10
2023-03-22T04:40:16.458Z,5.30
2023-03-22T04:42:44.793Z,5.00
2023-03-22T04:45:12.806Z,5.35
2023-03-22T04:47:39.812Z,4.80
2023-03-22T04:50:07.200Z,5.45
2023-03-22T04:52:33.670Z,5.13
2023-03-22T04:55:00.095Z,4.63
2023-03-22T04:57:26.812Z,4.40
2023-03-22T04:59:53.256Z,5.27
2023-03-22T05:02:19.791Z,4.43
2023-03-22T05:04:46.388Z,5.07
2023-03-22T05:07:12.896Z,4.78
2023-03-22T05:09:39.496Z,4.50
2023-03-22T05:12:06.050Z,4.73
2023-03-22T05:14:32.774Z,4.43
2023-03-22T05:16:59.376Z,5.00
2023-03-22T05:19:25.920Z,4.03
2023-03-22T05:21:58.160Z,3.58
2023-03-22T05:24:24.875Z,4.07
2023-03-22T05:26:53.919Z,4.00
2023-03-22T05:29:21.494Z,3.83
2023-03-22T05:31:48.638Z,3.53
2023-03-22T05:34:15.265Z,3.70
2023-03-22T05:36:41.813Z,4.33
2023-03-22T05:39:08.964Z,4.20
2023-03-22T05:41:36.793Z,4.22
2023-03-22T05:44:04.825Z,4.18
2023-03-22T05:46:31.332Z,4.40
2023-03-22T05:48:57.950Z,4.10
2023-03-22T05:51:25.933Z,4.00
2023-03-22T05:53:53.566Z,4.28
2023-03-22T05:56:24.203Z,3.50
2023-03-22T05:58:51.931Z,3.72
2023-03-22T06:01:20.370Z,3.20
2023-03-22T06:03:48.349Z,3.40
2023-03-22T06:06:15.825Z,4.03
2023-03-22T06:08:43.159Z,3.20
2023-03-22T06:11:10.208Z,3.60
2023-03-22T06:13:37.551Z,3.07
2023-03-22T06:16:04.853Z,2.60
2023-03-22T06:18:31.791Z,3.65
2023-03-22T06:20:59.442Z,2.90
2023-03-22T06:23:25.910Z,2.90
2023-03-22T06:25:52.422Z,2.63
2023-03-22T06:28:18.939Z,3.00
2023-03-22T06:30:45.493Z,2.55
2023-03-22T06:33:12.006Z,2.30
2023-03-22T06:35:38.626Z,2.90
2023-03-22T06:38:05.364Z,2.30
2023-03-22T06:40:31.850Z,2.50
2023-03-22T06:42:59.378Z,2.22
2023-03-22T06:45:33.159Z,2.30
2023-03-22T06:48:00.912Z,2.90
2023-03-22T06:50:28.831Z,2.67
2023-03-22T06:52:55.496Z,2.45
2023-03-22T06:55:22.274Z,2.33
2023-03-22T06:57:48.789Z,2.22
2023-03-22T07:00:16.022Z,1.95
2023-03-22T07:02:42.559Z,2.03
2023-03-22T07:05:09.381Z,1.95
2023-03-22T07:07:35.850Z,2.08
2023-03-22T07:10:02.332Z,1.67
2023-03-22T07:12:28.793Z,2.38
2023-03-22T07:14:55.403Z,1.90
2023-03-22T07:17:21.911Z,1.63
2023-03-22T07:19:48.888Z,1.40
2023-03-22T07:22:15.506Z,1.67
2023-03-22T07:24:53.849Z,1.90
2023-03-22T07:27:22.446Z,1.40
2023-03-22T07:29:48.883Z,1.30
2023-03-22T07:32:16.356Z,1.95
2023-03-22T07:34:43.086Z,1.30
2023-03-22T07:37:09.599Z,1.52
2023-03-22T07:39:36.549Z,1.60
2023-03-22T07:42:03.716Z,0.90
2023-03-22T07:44:30.499Z,1.45
2023-03-22T07:46:57.123Z,0.82
2023-03-22T07:49:23.661Z,1.27
2023-03-22T07:51:50.252Z,1.30
2023-03-22T07:54:32.164Z,1.27
2023-03-22T07:57:01.309Z,1.10
2023-03-22T07:59:28.040Z,2.80
2023-03-22T08:01:54.644Z,1.38
2023-03-22T08:04:22.473Z,1.30
2023-03-22T08:06:49.822Z,1.88
2023-03-22T08:09:16.328Z,1.85
2023-03-22T08:11:42.844Z,1.00
2023-03-22T08:14:09.637Z,1.13
2023-03-22T08:16:36.246Z,1.07
2023-03-22T08:19:02.895Z,1.52
2023-03-22T08:21:29.398Z,1.00
2023-03-22T08:23:55.978Z,1.60
2023-03-22T08:26:23.271Z,1.60
2023-03-22T08:28:49.777Z,1.50
2023-03-22T08:31:17.631Z,1.00
2023-03-22T08:33:44.735Z,1.20
2023-03-22T08:36:14.925Z,1.70
2023-03-22T08:38:42.538Z,1.50
2023-03-22T08:41:09.332Z,1.47
2023-03-22T08:43:35.802Z,1.65
2023-03-22T08:46:02.377Z,1.73
2023-03-22T08:48:30.850Z,1.80
2023-03-22T08:50:58.439Z,2.05
2023-03-22T08:53:24.954Z,1.47
2023-03-22T08:55:51.443Z,1.23
2023-03-22T08:58:19.999Z,1.55
2023-03-22T09:00:49.390Z,1.27
2023-03-22T09:03:16.947Z,1.60
2023-03-22T09:05:43.591Z,1.50
2023-03-22T09:08:18.596Z,1.75
2023-03-22T09:10:51.710Z,1.33
2023-03-22T09:13:18.927Z,1.40
2023-03-22T09:15:45.575Z,1.90
2023-03-22T09:18:12.518Z,1.10
2023-03-22T09:20:39.998Z,1.73
2023-03-22T09:23:06.890Z,1.27
2023-03-22T09:25:33.552Z,1.20
2023-03-22T09:28:00.054Z,1.60
2023-03-22T09:30:27.243Z,1.43
2023-03-22T09:32:53.976Z,1.58
2023-03-22T09:35:20.478Z,1.30
2023-03-22T09:37:47.475Z,1.23
2023-03-22T09:40:14.096Z,1.40
2023-03-22T09:42:50.241Z,1.40
2023-03-22T09:45:20.654Z,1.15
2023-03-22T09:47:51.339Z,1.20
2023-03-22T09:50:24.277Z,1.45
2023-03-22T09:52:52.600Z,1.48
2023-03-22T09:55:29.292Z,1.30
2023-03-22T09:58:01.770Z,1.30
2023-03-22T10:00:34.470Z,1.40
2023-03-22T10:03:05.731Z,1.45
2023-03-22T10:05:46.091Z,1.75
2023-03-22T10:08:27.924Z,1.97
2023-03-22T10:10:54.728Z,1.58
2023-03-22T10:13:29.301Z,1.25
2023-03-22T10:15:59.677Z,1.52
2023-03-22T10:18:35.850Z,1.58
2023-03-22T10:21:05.929Z,1.70
2023-03-22T10:23:39.139Z,1.80
2023-03-22T10:26:07.504Z,1.50
2023-03-22T10:28:43.861Z,1.38
2023-03-22T10:31:17.501Z,1.50
2023-03-22T10:34:02.250Z,1.70
2023-03-22T10:36:31.536Z,1.33
2023-03-22T10:39:04.056Z,1.48
2023-03-22T10:41:33.729Z,1.48
2023-03-22T10:44:03.011Z,1.67
2023-03-22T10:46:37.083Z,1.40
2023-03-22T10:49:05.546Z,1.48
2023-03-22T10:51:54.587Z,1.35
2023-03-22T10:54:22.529Z,1.30
2023-03-22T10:56:49.825Z,1.45
2023-03-22T10:59:42.398Z,1.40
2023-03-22T11:02:28.168Z,1.48
2023-03-22T11:04:58.041Z,1.08
2023-03-22T11:07:43.425Z,1.60
2023-03-22T11:10:09.864Z,1.48
2023-03-22T11:12:58.164Z,1.40
2023-03-22T11:15:31.089Z,1.20
2023-03-22T11:18:15.797Z,1.38
2023-03-22T11:20:51.953Z,1.10
2023-03-22T11:23:21.101Z,1.20
2023-03-22T11:25:49.771Z,1.10
2023-03-22T11:28:27.274Z,1.35
2023-03-22T11:31:02.418Z,1.10
2023-03-22T11:33:29.628Z,1.08
2023-03-22T11:35:58.747Z,0.95
2023-03-22T11:38:25.549Z,1.10
2023-03-22T11:41:23.519Z,0.95
2023-03-22T11:43:56.724Z,1.70
2023-03-22T11:46:24.640Z,1.30
2023-03-22T11:48:59.518Z,1.38
2023-03-22T11:51:35.061Z,1.30
2023-03-22T11:54:15.883Z,1.17
2023-03-22T11:56:46.059Z,1.20
2023-03-22T11:59:29.321Z,1.02
2023-03-22T12:02:17.778Z,1.70
2023-03-22T12:04:47.836Z,1.30
2023-03-22T12:07:17.871Z,1.20
2023-03-22T12:10:03.453Z,1.30
2023-03-22T12:12:35.295Z,0.93
2023-03-22T12:15:06.371Z,1.45
2023-03-22T12:17:37.697Z,1.53
2023-03-22T12:20:16.073Z,1.10
2023-03-22T12:22:47.737Z,1.38
2023-03-22T12:25:22.486Z,1.20
2023-03-22T12:27:54.863Z,1.23
2023-03-22T12:30:28.144Z,1.43
2023-03-22T12:33:09.715Z,1.10
2023-03-22T12:35:42.009Z,1.10
2023-03-22T12:38:41.134Z,1.30
2023-03-22T12:41:13.992Z,1.30
2023-03-22T12:43:55.961Z,1.23
2023-03-22T12:46:27.796Z,1.00
2023-03-22T12:49:05.068Z,1.13
2023-03-22T12:51:31.703Z,0.95
2023-03-22T12:54:01.067Z,0.93
2023-03-22T12:56:36.816Z,1.57
2023-03-22T12:59:06.555Z,1.20
2023-03-22T13:01:48.565Z,1.20
2023-03-22T13:04:36.819Z,1.17
2023-03-22T13:07:30.832Z,1.58
2023-03-22T13:10:01.565Z,1.20
2023-03-22T13:12:33.222Z,1.33
2023-03-22T13:15:04.412Z,1.40
2023-03-22T13:17:33.500Z,1.10
2023-03-22T13:20:01.088Z,1.50
2023-03-22T13:22:30.487Z,1.27
2023-03-22T13:25:13.649Z,1.10
2023-03-22T13:27:46.292Z,1.30
2023-03-22T13:30:25.114Z,1.17
2023-03-22T13:33:12.798Z,1.30
2023-03-22T13:35:46.756Z,1.43
2023-03-22T13:38:28.668Z,1.60
2023-03-22T13:41:17.165Z,1.33
2023-03-22T13:43:48.015Z,1.63
2023-03-22T13:46:36.702Z,1.55
2023-03-22T13:49:04.223Z,1.50
2023-03-22T13:51:34.205Z,2.03
2023-03-22T13:54:23.955Z,1.50
2023-03-22T13:56:54.310Z,1.45
2023-03-22T13:59:27.928Z,2.10
2023-03-22T14:02:04.846Z,1.60
2023-03-22T14:04:44.001Z,1.70
2023-03-22T14:07:34.857Z,2.10
2023-03-22T14:10:13.408Z,1.73
2023-03-22T14:12:54.156Z,2.25
2023-03-22T14:15:26.052Z,1.87
2023-03-22T14:18:23.499Z,2.70
2023-03-22T14:20:54.923Z,2.72
